Time;durP1;ratioP1;P1;durP2;ratioP2;P2;SDS_P1;SDS_P2;PMS_P1;PMS_P2;Temp;Humidity;BMP_temperature;BMP_pressure;BME280_temperature;BME280_humidity;BME280_pressure;Samples;Min_cycle;Max_cycle;Signal;HPM_P1;HPM_P2
2021/06/18 00:01:53;;;;;;;31.83;11.23;;;;;;;;;;3620471;39;20123;-63
2021/06/18 00:04:19;;;;;;;14.40;7.28;;;;;;;;;;3619028;39;20035;-63
2021/06/18 00:06:45;;;;;;;8.50;6.88;;;;;;;;;;3615776;39;20058;-63
2021/06/18 00:09:11;;;;;;;9.93;6.88;;;;;;;;;;3611592;39;20721;-63
2021/06/18 00:11:37;;;;;;;21.98;9.32;;;;;;;;;;3612518;39;20059;-63
2021/06/18 00:14:05;;;;;;;40.22;12.07;;;;;;;;;;3616266;39;20033;-63
2021/06/18 00:16:31;;;;;;;24.63;9.48;;;;;;;;;;3618852;39;20042;-63
2021/06/18 00:18:57;;;;;;;9.80;7.03;;;;;;;;;;3619872;39;20130;-63
2021/06/18 00:21:24;;;;;;;13.52;7.15;;;;;;;;;;3603953;39;20043;-63
2021/06/18 00:23:50;;;;;;;9.52;6.97;;;;;;;;;;3617797;39;20634;-65
2021/06/18 00:26:16;;;;;;;8.38;6.65;;;;;;;;;;3619295;39;20031;-63
2021/06/18 00:28:42;;;;;;;28.80;10.35;;;;;;;;;;3616518;39;20013;-63
2021/06/18 00:31:09;;;;;;;36.13;11.25;;;;;;;;;;3603142;39;20290;-63
2021/06/18 00:33:35;;;;;;;35.95;12.43;;;;;;;;;;3611918;39;20023;-63
2021/06/18 00:36:01;;;;;;;63.17;12.88;;;;;;;;;;3605326;39;20024;-63
2021/06/18 00:38:27;;;;;;;68.18;12.82;;;;;;;;;;3618137;39;20019;-63
2021/06/18 00:40:54;;;;;;;32.50;11.90;;;;;;;;;;3618714;39;20074;-63
2021/06/18 00:43:20;;;;;;;58.63;14.23;;;;;;;;;;3613295;39;20419;-63
2021/06/18 00:45:46;;;;;;;79.00;14.82;;;;;;;;;;3616998;39;20030;-63
2021/06/18 00:48:13;;;;;;;56.78;13.57;;;;;;;;;;3619636;39;20479;-63
2021/06/18 00:50:40;;;;;;;98.60;16.42;;;;;;;;;;3616458;39;20597;-63
2021/06/18 00:53:06;;;;;;;77.75;13.88;;;;;;;;;;3614549;39;20704;-63
2021/06/18 00:55:33;;;;;;;96.65;15.77;;;;;;;;;;3609188;39;20051;-63
2021/06/18 00:57:59;;;;;;;119.43;18.17;;;;;;;;;;3613849;39;20019;-63
2021/06/18 01:00:25;;;;;;;86.55;14.25;;;;;;;;;;3616706;39;20110;-63
2021/06/18 01:02:51;;;;;;;131.30;19.88;;;;;;;;;;3619047;39;20203;-63
2021/06/18 01:05:18;;;;;;;125.78;19.45;;;;;;;;;;3607328;39;20047;-63
2021/06/18 01:08:02;;;;;;;153.63;26.50;;;;;;;;;;3613634;39;20028;-63
2021/06/18 01:10:46;;;;;;;104.38;17.00;;;;;;;;;;3618084;39;20080;-63
2021/06/18 01:13:31;;;;;;;112.30;17.70;;;;;;;;;;3613137;39;20035;-63
2021/06/18 01:16:04;;;;;;;107.72;16.73;;;;;;;;;;3616419;39;20115;-63
2021/06/18 01:18:39;;;;;;;95.13;15.68;;;;;;;;;;3620107;39;20027;-63
2021/06/18 01:21:14;;;;;;;132.63;19.08;;;;;;;;;;3615494;39;20094;-63
2021/06/18 01:23:40;;;;;;;90.00;15.30;;;;;;;;;;3617344;39;20025;-63
2021/06/18 01:26:25;;;;;;;97.70;16.42;;;;;;;;;;3619009;39;20034;-63
2021/06/18 01:28:54;;;;;;;59.45;13.90;;;;;;;;;;3615452;39;20063;-63
2021/06/18 01:31:22;;;;;;;21.67;10.15;;;;;;;;;;3616064;39;20035;-63
2021/06/18 01:33:51;;;;;;;20.42;9.70;;;;;;;;;;3608897;39;20027;-63
2021/06/18 01:36:19;;;;;;;31.20;11.75;;;;;;;;;;3614589;39;20030;-63
2021/06/18 01:38:45;;;;;;;38.78;12.00;;;;;;;;;;3617838;39;20014;-63
2021/06/18 01:41:16;;;;;;;65.03;14.68;;;;;;;;;;3620665;39;20030;-63
2021/06/18 01:43:43;;;;;;;60.50;14.07;;;;;;;;;;3617803;39;20050;-63
2021/06/18 01:46:10;;;;;;;109.45;19.02;;;;;;;;;;3603843;39;20022;-63
2021/06/18 01:48:37;;;;;;;85.85;15.32;;;;;;;;;;3618861;39;20020;-63
2021/06/18 01:51:04;;;;;;;98.30;16.70;;;;;;;;;;3606873;39;20039;-63
2021/06/18 01:53:31;;;;;;;11.70;8.23;;;;;;;;;;3618595;39;20023;-63
2021/06/18 01:55:58;;;;;;;13.63;7.68;;;;;;;;;;3621019;39;20019;-63
2021/06/18 01:58:25;;;;;;;31.25;11.70;;;;;;;;;;3616586;39;20028;-63
2021/06/18 02:00:53;;;;;;;38.50;13.40;;;;;;;;;;3606097;39;20338;-63
2021/06/18 02:03:22;;;;;;;38.05;13.50;;;;;;;;;;3610180;39;20402;-63
2021/06/18 02:05:49;;;;;;;131.88;106.10;;;;;;;;;;3618452;39;20027;-63
2021/06/18 02:08:15;;;;;;;50.53;13.38;;;;;;;;;;3605665;39;20075;-63
2021/06/18 02:10:46;;;;;;;136.13;44.65;;;;;;;;;;3609970;39;20471;-62
2021/06/18 02:13:14;;;;;;;150.82;91.40;;;;;;;;;;3613515;39;20042;-63
2021/06/18 02:15:41;;;;;;;200.98;98.10;;;;;;;;;;3616536;39;20063;-63
2021/06/18 02:18:11;;;;;;;320.15;254.90;;;;;;;;;;3619781;39;20035;-62
2021/06/18 02:20:38;;;;;;;223.70;170.63;;;;;;;;;;3614410;39;20051;-62
2021/06/18 02:23:04;;;;;;;161.07;63.58;;;;;;;;;;3615495;39;20672;-65
2021/06/18 02:25:31;;;;;;;710.15;634.65;;;;;;;;;;3612424;39;20063;-64
2021/06/18 02:27:59;;;;;;;696.88;624.75;;;;;;;;;;3612867;39;20811;-64
2021/06/18 02:30:25;;;;;;;647.17;578.50;;;;;;;;;;3615684;39;20577;-64
2021/06/18 02:32:51;;;;;;;484.73;396.58;;;;;;;;;;3612325;39;20032;-63
2021/06/18 02:35:17;;;;;;;306.45;235.73;;;;;;;;;;3617900;39;20034;-64
2021/06/18 02:37:43;;;;;;;157.32;92.47;;;;;;;;;;3614975;39;20308;-63
2021/06/18 02:40:10;;;;;;;137.88;75.93;;;;;;;;;;3614273;39;20038;-63
2021/06/18 02:42:37;;;;;;;56.55;14.02;;;;;;;;;;3610119;39;20077;-63
2021/06/18 02:45:03;;;;;;;290.83;193.15;;;;;;;;;;3613614;39;20103;-62
2021/06/18 02:47:33;;;;;;;35.33;13.38;;;;;;;;;;3616277;39;20103;-63
2021/06/18 02:50:02;;;;;;;12.18;8.85;;;;;;;;;;3619442;39;20041;-63
2021/06/18 02:52:48;;;;;;;10.57;8.18;;;;;;;;;;3615424;39;20120;-63
2021/06/18 02:55:16;;;;;;;10.57;8.00;;;;;;;;;;3609345;39;20373;-62
2021/06/18 02:57:47;;;;;;;12.77;7.80;;;;;;;;;;3613815;39;20147;-62
2021/06/18 03:00:14;;;;;;;18.50;9.48;;;;;;;;;;3614255;39;20031;-63
2021/06/18 03:02:45;;;;;;;16.58;9.68;;;;;;;;;;3617378;39;20794;-62
2021/06/18 03:05:15;;;;;;;21.40;9.98;;;20.60;99.90;;;;;;3619256;39;20028;-63
2021/06/18 03:07:46;;;;;;;14.50;9.30;;;;;;;;;;3615186;39;20090;-63
2021/06/18 03:10:15;;;;;;;46.70;24.00;;;;;;;;;;3614478;39;20026;-63
2021/06/18 03:12:43;;;;;;;32.30;13.00;;;;;;;;;;3611796;39;20050;-63
2021/06/18 03:15:10;;;;;;;32.05;13.23;;;;;;;;;;3615048;39;20124;-63
2021/06/18 03:17:37;;;;;;;13.73;9.18;;;;;;;;;;3603317;39;20035;-63
2021/06/18 03:20:08;;;;;;;12.70;8.68;;;;;;;;;;3612840;39;20039;-63
2021/06/18 03:22:35;;;;;;;14.85;8.80;;;;;;;;;;3614528;39;20035;-63
2021/06/18 03:25:02;;;;;;;18.63;10.05;;;;;;;;;;3605678;39;20027;-63
2021/06/18 03:27:30;;;;;;;11.27;8.38;;;;;;;;;;3611875;39;20026;-63
2021/06/18 03:29:56;;;;;;;18.17;9.48;;;;;;;;;;3615106;39;20031;-63
2021/06/18 03:32:24;;;;;;;14.80;9.45;;;;;;;;;;3617343;39;20043;-62
2021/06/18 03:34:50;;;;;;;12.30;8.80;;;;;;;;;;3611656;39;20078;-64
2021/06/18 03:37:17;;;;;;;17.33;8.55;;;;;;;;;;3617284;39;20027;-61
2021/06/18 03:39:43;;;;;;;15.90;8.77;;;;;;;;;;3614068;39;21096;-61
2021/06/18 03:42:09;;;;;;;11.80;8.63;;;;;;;;;;3617213;39;20063;-61
2021/06/18 03:44:35;;;;;;;17.45;8.95;;;;;;;;;;3617985;39;20082;-62
2021/06/18 03:47:02;;;;;;;20.50;10.18;;;;;;;;;;3614822;39;20027;-62
2021/06/18 03:49:29;;;;;;;18.98;11.10;;;;;;;;;;3603171;39;20058;-67
2021/06/18 03:51:56;;;;;;;19.48;10.32;;;;;;;;;;3610756;39;20038;-67
2021/06/18 03:54:23;;;;;;;32.58;16.90;;;;;;;;;;3614068;39;20027;-67
2021/06/18 03:56:49;;;;;;;32.90;16.98;;;;;;;;;;3601906;39;20031;-67
2021/06/18 03:59:16;;;;;;;22.38;12.95;;;;;;;;;;3613853;39;20085;-67
2021/06/18 04:01:43;;;;;;;14.75;9.65;;;;;;;;;;3615598;39;20119;-67
2021/06/18 04:04:10;;;;;;;13.82;9.50;;;;;;;;;;3610401;39;20090;-67
2021/06/18 04:06:36;;;;;;;18.30;8.18;;;;;;;;;;3612901;39;20047;-63
2021/06/18 04:09:02;;;;;;;16.98;8.60;;;;;;;;;;3617319;39;20118;-68
2021/06/18 04:11:28;;;;;;;13.18;9.10;;;;;;;;;;3617531;39;20032;-69
2021/06/18 04:13:55;;;;;;;14.32;8.77;;;;;;;;;;3614019;39;20074;-69
2021/06/18 04:16:21;;;;;;;17.30;8.85;;;;;;;;;;3616250;39;20039;-68
2021/06/18 04:18:48;;;;;;;15.00;8.30;;;;;;;;;;3615452;39;20067;-68
2021/06/18 04:21:16;;;;;;;12.93;8.15;;;;;;;;;;3612066;39;20067;-69
2021/06/18 04:23:42;;;;;;;18.00;10.38;;;;;;;;;;3602919;39;20131;-69
2021/06/18 04:26:08;;;;;;;15.18;9.80;;;;;;;;;;3613892;39;20064;-66
2021/06/18 04:28:35;;;;;;;14.90;8.32;;;;;;;;;;3615680;39;20042;-67
2021/06/18 04:31:01;;;;;;;12.85;8.23;;;;;;;;;;3614210;39;20054;-66
2021/06/18 04:33:27;;;;;;;11.80;7.55;;;;;;;;;;3603484;39;20041;-69
2021/06/18 04:35:53;;;;;;;15.32;9.15;;;;;;;;;;3614317;39;20124;-66
2021/06/18 04:38:20;;;;;;;13.30;8.98;;;;;;;;;;3617019;39;20031;-66
2021/06/18 04:40:46;;;;;;;12.27;9.00;;;;;;;;;;3618533;39;20038;-65
2021/06/18 04:43:12;;;;;;;17.85;9.30;;;;;;;;;;3603322;39;20066;-66
2021/06/18 04:45:38;;;;;;;16.63;9.38;;;;;;;;;;3616957;39;20047;-66
2021/06/18 04:48:06;;;;;;;12.25;8.75;;;;;;;;;;3617389;39;20049;-65
2021/06/18 04:50:32;;;;;;;14.10;8.60;;;;;;;;;;3614109;39;20031;-65
2021/06/18 04:53:00;;;;;;;15.57;8.82;;;;;;;;;;3614494;39;20404;-65
2021/06/18 04:55:26;;;;;;;15.63;7.80;;;;;;;;;;3612391;39;20348;-64
2021/06/18 04:57:52;;;;;;;18.83;9.70;;;;;;;;;;3619561;39;20091;-65
2021/06/18 05:00:23;;;;;;;15.00;8.43;;;;;;;;;;3619418;39;20406;-65
2021/06/18 05:02:49;;;;;;;18.48;8.48;;;;;;;;;;3618407;39;20046;-65
2021/06/18 05:05:15;;;;;;;21.58;7.65;;;;;;;;;;3614317;39;20046;-65
2021/06/18 05:07:41;;;;;;;14.25;8.20;;;;;;;;;;3615394;39;20104;-65
2021/06/18 05:10:09;;;;;;;13.38;7.53;;;;;;;;;;3614511;39;20034;-65
2021/06/18 05:12:35;;;;;;;9.30;6.75;;;;;;;;;;3618110;39;20025;-66
2021/06/18 05:15:02;;;;;;;10.90;7.78;;;;;;;;;;3618962;39;20023;-66
2021/06/18 05:17:28;;;;;;;10.32;7.80;;;;;;;;;;3619008;39;20418;-65
2021/06/18 05:19:54;;;;;;;14.98;7.68;;;;;;;;;;3617992;39;20019;-66
2021/06/18 05:22:20;;;;;;;12.65;7.13;;;;;;;;;;3619316;39;20031;-66
2021/06/18 05:24:46;;;;;;;17.65;7.93;;;;;;;;;;3613473;39;20038;-65
2021/06/18 05:27:12;;;;;;;11.13;7.68;;;;;;;;;;3616408;39;20415;-66
2021/06/18 05:29:38;;;;;;;20.38;7.72;;;;;;;;;;3609084;39;20043;-66
2021/06/18 05:32:05;;;;;;;16.58;8.27;;;;;;;;;;3616832;39;20019;-66
2021/06/18 05:34:31;;;;;;;12.25;8.60;;;;;;;;;;3618105;39;20132;-65
2021/06/18 05:36:57;;;;;;;11.85;7.55;;;;;;;;;;3619787;39;20050;-66
2021/06/18 05:39:23;;;;;;;15.15;7.55;;;;;;;;;;3617771;39;20357;-66
2021/06/18 05:41:49;;;;;;;11.95;7.43;;;;;;;;;;3614732;39;20024;-65
2021/06/18 05:44:15;;;;;;;14.68;7.63;;;;;;;;;;3614038;39;20039;-66
2021/06/18 05:46:42;;;;;;;11.25;7.40;;;;;;;;;;3607597;39;20284;-65
2021/06/18 05:49:08;;;;;;;13.52;7.40;;;;;;;;;;3615184;39;20098;-65
2021/06/18 05:51:34;;;;;;;12.32;7.20;;;;;;;;;;3615461;39;20372;-66
2021/06/18 05:54:00;;;;;;;18.92;8.05;;;;;;;;;;3604348;39;20038;-65
2021/06/18 05:56:27;;;;;;;12.98;7.78;;;;;;;;;;3604685;39;20401;-66
2021/06/18 05:58:53;;;;;;;14.32;8.07;;;;;;;;;;3612542;39;20032;-65
2021/06/18 06:01:19;;;;;;;12.23;8.07;;;;;;;;;;3616016;39;20023;-66
2021/06/18 06:03:45;;;;;;;14.25;6.75;;;;;;;;;;3612463;39;20042;-65
2021/06/18 06:06:11;;;;;;;16.17;7.32;;;;;;;;;;3615182;39;20070;-66
2021/06/18 06:08:37;;;;;;;15.35;8.32;;;;;;;;;;3611787;39;20481;-66
2021/06/18 06:11:04;;;;;;;19.75;8.90;;;;;;;;;;3617714;39;20505;-66
2021/06/18 06:13:30;;;;;;;17.88;9.57;;;;;;;;;;3614120;39;20631;-66
2021/06/18 06:15:56;;;;;;;19.55;8.65;;;;;;;;;;3614288;39;20034;-66
2021/06/18 06:18:22;;;;;;;15.15;8.68;;;;;;;;;;3619071;39;20059;-65
2021/06/18 06:20:49;;;;;;;12.63;6.38;;;;;;;;;;3616603;39;20095;-66
2021/06/18 06:23:16;;;;;;;10.85;8.07;;;;;;;;;;3616077;39;20554;-66
2021/06/18 06:25:42;;;;;;;15.30;8.05;;;;;;;;;;3616549;39;20109;-65
2021/06/18 06:28:09;;;;;;;13.13;7.53;;;;;;;;;;3617061;39;20016;-66
2021/06/18 06:30:36;;;;;;;28.13;9.18;;;;;;;;;;3606092;39;20045;-65
2021/06/18 06:33:02;;;;;;;14.13;8.05;;;;;;;;;;3616786;39;20030;-65
2021/06/18 06:35:29;;;;;;;17.50;7.32;;;;;;;;;;3611347;39;20035;-66
2021/06/18 06:37:55;;;;;;;24.98;8.18;;;;;;;;;;3607873;39;20034;-65
2021/06/18 06:40:22;;;;;;;13.93;7.55;;;;;;;;;;3614418;39;20108;-65
2021/06/18 06:42:49;;;;;;;19.08;7.68;;;;;;;;;;3611492;39;20042;-65
2021/06/18 06:45:15;;;;;;;9.02;6.28;;;;;;;;;;3612393;39;20026;-65
2021/06/18 06:47:41;;;;;;;18.27;8.52;;;;;;;;;;3615534;39;20023;-65
2021/06/18 06:50:11;;;;;;;25.98;9.25;;;;;;;;;;3613653;39;20025;-66
2021/06/18 06:52:37;;;;;;;19.83;8.65;;;;;;;;;;3603124;39;20030;-65
2021/06/18 06:55:03;;;;;;;32.97;8.80;;;;;;;;;;3614460;39;20023;-66
2021/06/18 06:57:29;;;;;;;20.30;8.00;;;;;;;;;;3613844;39;20139;-65
2021/06/18 06:59:55;;;;;;;25.05;8.60;;;;;;;;;;3618747;39;20747;-65
2021/06/18 07:02:21;;;;;;;25.00;8.90;;;;;;;;;;3615399;39;20035;-65
2021/06/18 07:04:47;;;;;;;18.83;8.27;;;;;;;;;;3612144;39;20031;-66
2021/06/18 07:07:13;;;;;;;16.25;6.68;;;;;;;;;;3616979;39;20023;-66
2021/06/18 07:09:40;;;;;;;13.27;5.75;;;;;;;;;;3615859;39;20147;-66
2021/06/18 07:12:07;;;;;;;13.98;6.65;;;;;;;;;;3617531;39;20034;-66
2021/06/18 07:14:36;;;;;;;22.83;8.02;;;;;;;;;;3619084;39;20027;-66
2021/06/18 07:17:03;;;;;;;15.48;6.18;;;;;;;;;;3614022;39;20042;-66
2021/06/18 07:19:29;;;;;;;16.23;6.63;;;;;;;;;;3611358;39;20043;-66
2021/06/18 07:21:55;;;;;;;12.82;5.88;;;;;;;;;;3613915;39;20127;-66
2021/06/18 07:24:21;;;;;;;17.77;6.82;;;;;;;;;;3615983;39;20043;-66
2021/06/18 07:26:47;;;;;;;18.73;6.90;;;;;;;;;;3615312;39;20035;-66
2021/06/18 07:29:13;;;;;;;19.88;5.78;;;;;;;;;;3618349;39;20042;-66
2021/06/18 07:31:39;;;;;;;18.95;7.05;;;;;;;;;;3615112;39;20027;-65
2021/06/18 07:34:06;;;;;;;27.38;9.27;;;;;;;;;;3615224;39;20393;-66
2021/06/18 07:36:32;;;;;;;33.03;11.00;;;;;;;;;;3609746;39;20037;-66
2021/06/18 07:38:58;;;;;;;20.05;7.72;;;;;;;;;;3615066;39;20455;-66
2021/06/18 07:41:24;;;;;;;23.85;8.38;;;;;;;;;;3605448;39;20058;-66
2021/06/18 07:43:50;;;;;;;29.95;9.07;;;;;;;;;;3612204;39;20131;-66
2021/06/18 07:46:16;;;;;;;23.17;8.05;;;;;;;;;;3602671;39;20031;-67
2021/06/18 07:48:42;;;;;;;88.75;11.70;;;;;;;;;;3602675;39;20027;-66
2021/06/18 07:51:09;;;;;;;28.23;7.65;;;;;;;;;;3612045;39;20035;-68
2021/06/18 07:53:35;;;;;;;37.22;8.35;;;;;;;;;;3617305;39;20023;-67
2021/06/18 07:56:01;;;;;;;33.45;7.80;;;;;;;;;;3612180;39;20624;-68
2021/06/18 07:58:28;;;;;;;15.93;6.32;;;;;;;;;;3607631;39;20030;-70
2021/06/18 08:00:54;;;;;;;40.63;7.55;;;;;;;;;;3617113;39;20108;-68
2021/06/18 08:03:20;;;;;;;39.42;8.38;;;;;;;;;;3605713;39;20046;-67
2021/06/18 08:05:46;;;;;;;51.92;9.13;;;;;;;;;;3618934;39;20034;-68
2021/06/18 08:08:12;;;;;;;20.65;6.13;;;;;;;;;;3615894;39;20030;-65
2021/06/18 08:10:38;;;;;;;9.27;3.80;;;;;;;;;;3613799;39;20147;-66
2021/06/18 08:13:04;;;;;;;20.13;5.45;;;;;;;;;;3611218;39;20027;-66
2021/06/18 08:15:31;;;;;;;67.13;9.52;;;;;;;;;;3601658;39;20031;-67
2021/06/18 08:17:58;;;;;;;63.38;9.18;;;;;;;;;;3614282;39;20014;-69
2021/06/18 08:20:25;;;;;;;126.80;15.98;;;;;;;;;;3611470;39;20120;-68
2021/06/18 08:22:53;;;;;;;103.03;12.52;;;;;;;;;;3613681;39;20034;-68
2021/06/18 08:25:20;;;;;;;138.85;19.92;;;;;;;;;;3613053;39;20028;-68
2021/06/18 08:27:46;;;;;;;107.70;13.57;;;;;;;;;;3615181;39;20037;-69
2021/06/18 08:30:12;;;;;;;108.95;13.68;;;;;;;;;;3611393;39;20107;-68
2021/06/18 08:32:38;;;;;;;42.95;8.82;;;;;;;;;;3615723;39;20050;-68
2021/06/18 08:35:04;;;;;;;31.88;8.07;;;;;;;;;;3603718;39;20452;-67
2021/06/18 08:37:31;;;;;;;38.13;10.07;;;;;;;;;;3619504;39;20037;-68
2021/06/18 08:39:57;;;;;;;21.25;6.63;;;;;;;;;;3612988;39;20039;-67
2021/06/18 08:42:24;;;;;;;49.78;8.52;;;;;;;;;;3616930;39;20022;-68
2021/06/18 08:44:50;;;;;;;28.58;7.22;;;;;;;;;;3618932;39;20033;-68
2021/06/18 08:47:16;;;;;;;35.17;8.18;;;;;;;;;;3615750;39;20038;-69
2021/06/18 08:49:42;;;;;;;39.17;9.43;;;;;;;;;;3617143;39;20023;-69
2021/06/18 08:52:08;;;;;;;35.33;7.72;;;;;;;;;;3611493;39;20491;-68
2021/06/18 08:54:44;;;;;;;30.98;7.03;;;;;;;;;;3604017;39;20839;-68
2021/06/18 08:57:18;;;;;;;21.85;6.82;;;;;;;;;;3616296;39;20031;-69
2021/06/18 08:59:45;;;;;;;14.35;5.47;;;;;;;;;;3612610;39;20027;-67
2021/06/18 09:02:11;;;;;;;18.48;5.78;;;;;;;;;;3612910;39;20038;-67
2021/06/18 09:04:56;;;;;;;20.15;6.57;;;;;;;;;;3603879;39;20051;-67
2021/06/18 09:07:22;;;;;;;3.85;2.60;;;;;;;;;;3612094;39;20023;-69
2021/06/18 09:09:48;;;;;;;6.07;3.53;;;;;;;;;;3606540;39;20064;-68
2021/06/18 09:12:15;;;;;;;7.05;3.20;;;;;;;;;;3615729;39;20038;-68
2021/06/18 09:14:42;;;;;;;19.45;5.72;;;;;;;;;;3612307;39;20031;-68
2021/06/18 09:17:11;;;;;;;26.55;6.30;;;;;;;;;;3608113;39;20019;-68
2021/06/18 09:19:45;;;;;;;15.65;6.07;;;;;;;;;;3615351;39;20031;-68
2021/06/18 09:22:24;;;;;;;36.97;7.57;;;;;;;;;;3610986;39;20401;-67
2021/06/18 09:24:58;;;;;;;48.50;8.65;;;;;;;;;;3614453;39;20153;-67
2021/06/18 09:27:35;;;;;;;46.42;8.07;;;;;;;;;;3614322;39;20541;-69
2021/06/18 09:30:21;;;;;;;32.85;6.45;;;;;;;;;;3606426;39;20792;-69
2021/06/18 09:33:12;;;;;;;30.17;6.88;;;;;;;;;;3611890;39;20035;-69
2021/06/18 09:35:58;;;;;;;21.33;6.40;;;;;;;;;;3610631;39;20514;-69
2021/06/18 09:38:38;;;;;;;33.97;8.13;;;;;;;;;;3608574;39;20065;-68
2021/06/18 09:41:04;;;;;;;42.08;7.38;;;;;;;;;;3612368;39;20015;-70
2021/06/18 09:43:42;;;;;;;12.32;5.28;;;;;;;;;;3610755;39;20027;-69
2021/06/18 09:46:08;;;;;;;21.23;6.20;;;;;;;;;;3607618;39;20054;-68
2021/06/18 09:48:34;;;;;;;25.52;5.85;;;;;;;;;;3614418;39;20042;-68
2021/06/18 09:51:02;;;;;;;10.07;3.25;;;;;;;;;;3598076;39;20030;-69
2021/06/18 09:53:29;;;;;;;12.18;5.50;;;;;;;;;;3606017;39;20062;-68
2021/06/18 09:56:06;;;;;;;13.63;5.05;;;;;;;;;;3599033;39;20036;-68
2021/06/18 09:58:35;;;;;;;13.20;5.53;;;;;;;;;;3620717;39;20031;-69
2021/06/18 10:01:25;;;;;;;9.25;4.43;;;;;;;;;;3620729;39;20030;-69
2021/06/18 10:04:01;;;;;;;5.88;2.90;;;;;;;;;;3617685;39;20127;-69
2021/06/18 10:06:28;;;;;;;12.35;4.57;;;;;;;;;;3618361;39;20030;-68
2021/06/18 10:08:54;;;;;;;6.18;3.08;;;;;;;;;;3619804;39;20027;-68
2021/06/18 10:11:20;;;;;;;14.80;4.72;;;;;;;;;;3607107;39;20038;-68
2021/06/18 10:13:46;;;;;;;11.63;3.72;;;;;;;;;;3618523;39;20127;-68
2021/06/18 10:16:16;;;;;;;8.55;4.35;;;;;;;;;;3618496;39;20042;-68
2021/06/18 10:18:42;;;;;;;9.93;4.10;;;;;;;;;;3606055;39;20060;-68
2021/06/18 10:21:09;;;;;;;14.45;5.57;;;;;;;;;;3606011;39;20046;-68
2021/06/18 10:23:35;;;;;;;12.40;5.20;;;;;;;;;;3615268;39;20147;-68
2021/06/18 10:26:02;;;;;;;16.05;6.18;;;;;;;;;;3614011;39;20043;-69
2021/06/18 10:28:33;;;;;;;22.00;6.80;;;;;;;;;;3609867;39;20132;-68
2021/06/18 10:31:00;;;;;;;23.33;6.78;;;;;;;;;;3607891;39;20062;-69
2021/06/18 10:33:29;;;;;;;5.22;2.50;;;;;;;;;;3618090;39;20043;-68
2021/06/18 10:36:00;;;;;;;3.78;2.42;;;;;;;;;;3613725;39;20119;-68
2021/06/18 10:38:37;;;;;;;4.70;2.30;;;;;;;;;;3609764;39;20087;-68
2021/06/18 10:41:22;;;;;;;11.88;2.63;;;;;;;;;;3614126;39;20114;-68
2021/06/18 10:43:50;;;;;;;4.88;2.30;;;;;;;;;;3600769;39;20088;-68
2021/06/18 10:46:20;;;;;;;4.13;2.65;;;;;;;;;;3612505;39;20343;-69
2021/06/18 10:48:52;;;;;;;6.82;2.10;;;;;;;;;;3618287;39;20384;-68
2021/06/18 10:51:30;;;;;;;6.32;3.03;;;;;;;;;;3614156;39;20023;-68
2021/06/18 10:54:02;;;;;;;7.85;2.90;;;;;;;;;;3617462;39;20046;-68
2021/06/18 10:56:46;;;;;;;14.88;2.42;;;;;;;;;;3607041;39;20027;-68
2021/06/18 10:59:16;;;;;;;6.72;2.75;;;;;;;;;;3616922;39;20042;-68
2021/06/18 11:01:42;;;;;;;4.03;2.42;;;;;;;;;;3615578;39;20030;-68
2021/06/18 11:04:08;;;;;;;4.88;2.40;;;;;;;;;;3605110;39;20031;-68
2021/06/18 11:06:41;;;;;;;4.30;2.30;;;;;;;;;;3614716;39;20050;-68
2021/06/18 11:09:07;;;;;;;4.35;3.15;;;;;;;;;;3607568;39;20436;-69
2021/06/18 11:11:33;;;;;;;10.70;3.13;;;;;;;;;;3615791;39;20027;-67
2021/06/18 11:14:03;;;;;;;9.45;2.70;;;;;;;;;;3613966;39;20035;-68
2021/06/18 11:16:36;;;;;;;3.83;2.50;;;;;;;;;;3613712;39;20033;-68
2021/06/18 11:19:21;;;;;;;7.00;2.60;;;;;;;;;;3602877;39;20019;-69
2021/06/18 11:21:48;;;;;;;5.30;2.55;;;;;;;;;;3618226;39;20035;-69
2021/06/18 11:24:32;;;;;;;9.75;2.53;;;;;;;;;;3609689;39;20043;-69
2021/06/18 11:27:16;;;;;;;5.93;2.38;;;;;;;;;;3614513;39;20039;-68
2021/06/18 11:29:42;;;;;;;6.45;2.22;;;;;;;;;;3617593;39;20027;-69
2021/06/18 11:32:28;;;;;;;5.43;2.30;;;;;;;;;;3612352;39;20403;-69
2021/06/18 11:34:54;;;;;;;3.67;2.30;;;;;;;;;;3613470;39;20023;-69
2021/06/18 11:37:32;;;;;;;4.97;2.10;;;;;;;;;;3614975;39;20026;-69
2021/06/18 11:40:08;;;;;;;3.97;2.17;;;;;;;;;;3616643;39;20027;-69
2021/06/18 11:42:38;;;;;;;4.68;2.10;;;;;;;;;;3613243;39;20046;-61
2021/06/18 11:45:04;;;;;;;6.18;2.10;;;;;;;;;;3617144;39;20035;-61
2021/06/18 11:47:34;;;;;;;7.97;2.08;;;;;;;;;;3604088;39;20024;-61
2021/06/18 11:50:00;;;;;;;5.72;2.10;;;;;;;;;;3612965;39;20031;-61
2021/06/18 11:52:29;;;;;;;4.97;2.15;;;;;;;;;;3611840;39;20059;-61
2021/06/18 11:54:59;;;;;;;4.28;2.28;;;;;;;;;;3613836;39;20038;-60
2021/06/18 11:57:25;;;;;;;6.05;2.13;;;;;;;;;;3605377;39;20168;-61
2021/06/18 11:59:59;;;;;;;3.15;2.17;;;;;;;;;;3618626;39;20018;-61
2021/06/18 12:02:28;;;;;;;6.25;2.40;;;;;;;;;;3612808;39;20448;-61
2021/06/18 12:05:03;;;;;;;6.53;1.95;;;;;;;;;;3616960;39;20135;-61
2021/06/18 12:07:30;;;;;;;3.65;1.85;;;;;;;;;;3618983;39;20422;-61
2021/06/18 12:09:56;;;;;;;9.13;2.95;;;;;;;;;;3612381;39;20027;-62
2021/06/18 12:12:22;;;;;;;2.20;2.00;;;;;;;;;;3615012;39;20032;-61
2021/06/18 12:14:55;;;;;;;8.98;2.10;;;;;;;;;;3611528;39;20023;-62
2021/06/18 12:17:21;;;;;;;4.22;2.17;;;36.70;36.70;;;;;;3609682;39;20031;-61
2021/06/18 12:19:49;;;;;;;2.35;2.08;;;;;;;;;;3608564;39;20035;-61
2021/06/18 12:22:15;;;;;;;4.35;1.88;;;;;;;;;;3609392;39;20707;-61
2021/06/18 12:24:41;;;;;;;4.97;1.88;;;;;;;;;;3607838;39;20040;-61
2021/06/18 12:27:14;;;;;;;4.22;1.90;;;;;;;;;;3611882;39;20034;-60
2021/06/18 12:29:42;;;;;;;6.45;1.80;;;;;;;;;;3606678;39;20039;-61
2021/06/18 12:32:08;;;;;;;5.03;2.03;;;;;;;;;;3606047;39;20499;-62
2021/06/18 12:34:35;;;;;;;4.93;2.03;;;;;;;;;;3611027;39;20046;-61
2021/06/18 12:37:02;;;;;;;6.38;1.80;;;;;;;;;;3610778;39;20070;-61
2021/06/18 12:39:28;;;;;;;3.35;2.08;;;;;;;;;;3614792;39;20687;-62
2021/06/18 12:41:55;;;;;;;5.88;2.15;;;;;;;;;;3615187;39;20035;-61
2021/06/18 12:44:31;;;;;;;4.10;1.90;;;;;;;;;;3614559;39;20084;-61
2021/06/18 12:46:58;;;;;;;6.25;1.83;;;;;;;;;;3611337;39;20029;-62
2021/06/18 12:49:28;;;;;;;3.40;1.80;;;;;;;;;;3613650;39;20067;-61
2021/06/18 12:52:07;;;;;;;8.52;3.85;;;;;;;;;;3605740;39;20039;-61
2021/06/18 12:54:33;;;;;;;6.75;1.83;;;;;;;;;;3614980;39;20036;-61
2021/06/18 12:57:00;;;;;;;12.02;5.72;;;;;;;;;;3615110;39;20047;-61
2021/06/18 12:59:35;;;;;;;2.65;1.70;;;;;;;;;;3611906;39;20125;-61
2021/06/18 13:02:01;;;;;;;3.97;1.75;;;;;;;;;;3612370;39;20104;-61
2021/06/18 13:04:32;;;;;;;5.57;2.00;;;;;;;;;;3612860;39;20456;-62
2021/06/18 13:06:58;;;;;;;11.57;1.80;;;;;;;;;;3613877;39;20066;-63
2021/06/18 13:09:38;;;;;;;2.78;2.00;;;;;;;;;;3613638;39;20072;-62
2021/06/18 13:12:05;;;;;;;4.03;2.00;;;40.10;34.80;;;;;;3610520;39;20042;-61
2021/06/18 13:14:42;;;;;;;6.70;2.22;;;;;;;;;;3612703;39;20015;-62
2021/06/18 13:17:08;;;;;;;5.50;2.72;;;;;;;;;;3617658;39;20034;-62
2021/06/18 13:19:40;;;;;;;2.80;1.88;;;;;;;;;;3613750;39;20031;-62
2021/06/18 13:22:18;;;;;;;6.93;2.00;;;;;;;;;;3611108;39;20035;-63
2021/06/18 13:24:49;;;;;;;6.60;2.03;;;39.10;35.10;;;;;;3609298;39;20039;-63
2021/06/18 13:27:16;;;;;;;5.30;3.40;;;39.30;33.70;;;;;;3611644;39;20093;-62
2021/06/18 13:29:55;;;;;;;6.70;4.43;;;;;;;;;;3611768;39;20034;-62
2021/06/18 13:32:23;;;;;;;3.70;2.78;;;41.50;33.30;;;;;;3613859;39;20035;-62
2021/06/18 13:34:54;;;;;;;10.38;2.00;;;;;;;;;;3611494;39;20124;-62
2021/06/18 13:37:28;;;;;;;4.60;2.13;;;;;;;;;;3613376;39;20027;-62
2021/06/18 13:40:32;;;;;;;4.82;1.80;;;42.30;33.00;;;;;;3617614;39;20339;-62
2021/06/18 13:42:58;;;;;;;2.67;1.77;;;;;;;;;;3615990;39;20079;-62
2021/06/18 13:45:24;;;;;;;3.42;1.77;;;40.50;33.60;;;;;;3605503;39;20041;-62
2021/06/18 13:47:55;;;;;;;5.43;1.80;;;40.90;33.40;;;;;;3619373;39;20026;-62
2021/06/18 13:50:22;;;;;;;5.65;1.98;;;;;;;;;;3620404;39;20043;-62
2021/06/18 13:52:49;;;;;;;3.58;1.80;;;43.40;33.40;;;;;;3618224;39;20416;-62
2021/06/18 13:55:15;;;;;;;2.63;1.75;;;43.20;32.40;;;;;;3614033;39;20024;-62
2021/06/18 13:57:40;;;;;;;5.28;1.80;;;42.90;31.80;;;;;;3613294;39;20131;-62
2021/06/18 14:00:08;;;;;;;3.92;1.70;;;42.10;31.90;;;;;;3615960;39;20123;-62
2021/06/18 14:02:38;;;;;;;4.63;1.80;;;42.00;32.50;;;;;;3614882;39;20741;-62
2021/06/18 14:05:05;;;;;;;3.25;1.67;;;41.20;33.30;;;;;;3611805;39;20047;-62
2021/06/18 14:07:30;;;;;;;2.40;1.85;;;41.40;34.50;;;;;;3614540;39;20083;-62
2021/06/18 14:09:56;;;;;;;3.47;1.98;;;41.90;33.80;;;;;;3615651;39;20038;-62
2021/06/18 14:12:22;;;;;;;2.40;1.90;;;41.40;33.30;;;;;;3619508;39;20030;-62
2021/06/18 14:14:56;;;;;;;4.18;1.83;;;41.50;33.40;;;;;;3616998;39;20031;-63
2021/06/18 14:17:22;;;;;;;5.95;2.22;;;41.20;34.30;;;;;;3603486;39;20128;-62
2021/06/18 14:19:48;;;;;;;3.75;1.80;;;41.60;33.70;;;;;;3602111;39;20035;-62
2021/06/18 14:22:15;;;;;;;5.10;1.80;;;41.40;33.60;;;;;;3603666;39;20087;-62
2021/06/18 14:24:42;;;;;;;7.75;1.80;;;41.80;33.50;;;;;;3615260;39;20656;-63
2021/06/18 14:27:09;;;;;;;2.22;1.80;;;42.30;33.40;;;;;;3608753;39;20051;-62
2021/06/18 14:29:35;;;;;;;4.45;1.90;;;42.60;34.00;;;;;;3613590;39;20511;-62